createdAt,value
2023-12-02T00:02:15.674Z,92221.84
2023-12-02T00:07:18.775Z,92244.75
2023-12-02T00:12:20.622Z,92240.59
2023-12-02T00:17:22.355Z,92241.25
2023-12-02T00:22:25.362Z,92230.63
2023-12-02T00:27:26.992Z,92250.19
2023-12-02T00:32:29.909Z,92236.84
2023-12-02T00:37:33.029Z,92243.84
2023-12-02T00:42:35.343Z,92245.44
2023-12-02T00:47:37.054Z,92231.44
2023-12-02T00:52:40.023Z,92223.81
2023-12-02T00:57:42.410Z,92224.91
2023-12-02T01:02:44.020Z,92227.63
2023-12-02T01:07:47.040Z,92231.94
2023-12-02T01:12:48.611Z,92227.97
2023-12-02T01:17:50.278Z,92238.94
2023-12-02T01:22:53.260Z,92242.44
2023-12-02T01:27:54.868Z,92235.16
2023-12-02T01:32:56.581Z,92240.72
2023-12-02T01:37:59.465Z,92250.09
2023-12-02T01:43:02.847Z,92259.50
2023-12-02T01:48:04.938Z,92245.66
2023-12-02T01:53:07.998Z,92267.78
2023-12-02T01:58:09.728Z,92267.13
2023-12-02T02:03:11.441Z,92269.88
2023-12-02T02:08:14.507Z,92262.72
2023-12-02T02:13:16.229Z,92265.75
2023-12-02T02:18:17.923Z,92283.38
2023-12-02T02:23:22.162Z,92244.91
2023-12-02T02:28:25.308Z,92275.13
2023-12-02T02:33:26.956Z,92261.44
2023-12-02T02:38:29.954Z,92271.94
2023-12-02T02:43:31.477Z,92276.72
2023-12-02T02:48:33.130Z,92283.06
2023-12-02T02:53:36.076Z,92302.78
2023-12-02T02:58:37.656Z,92297.69
2023-12-02T03:03:39.207Z,92273.56
2023-12-02T03:08:42.193Z,92264.66
2023-12-02T03:13:43.868Z,92275.31
2023-12-02T03:18:45.567Z,92281.34
2023-12-02T03:23:50.666Z,92283.91
2023-12-02T03:28:52.405Z,92280.56
2023-12-02T03:33:53.990Z,92293.91
2023-12-02T03:38:56.988Z,92275.78
2023-12-02T03:43:59.367Z,92257.38
2023-12-02T03:49:01.331Z,92256.75
2023-12-02T03:54:04.247Z,92271.69
2023-12-02T03:59:05.755Z,92294.41
2023-12-02T04:04:07.306Z,92299.03
2023-12-02T04:09:10.150Z,92323.34
2023-12-02T04:14:11.757Z,92338.91
2023-12-02T04:19:13.445Z,92328.25
2023-12-02T04:24:16.375Z,92346.03
2023-12-02T04:29:17.912Z,92366.03
2023-12-02T04:34:19.577Z,92365.69
2023-12-02T04:39:22.564Z,92379.38
2023-12-02T04:44:24.510Z,92394.63
2023-12-02T04:49:26.175Z,92398.72
2023-12-02T04:54:29.198Z,92397.13
2023-12-02T04:59:30.762Z,92393.94
2023-12-02T05:04:32.476Z,92395.84
2023-12-02T05:09:37.295Z,92393.59
2023-12-02T05:14:39.160Z,92388.53
2023-12-02T05:19:40.732Z,92377.38
2023-12-02T05:24:43.709Z,92389.13
2023-12-02T05:29:45.263Z,92392.94
2023-12-02T05:34:46.896Z,92412.75
2023-12-02T05:39:49.767Z,92422.13
2023-12-02T05:44:51.306Z,92440.88
2023-12-02T05:49:52.842Z,92452.28
2023-12-02T05:54:56.132Z,92455.13
2023-12-02T05:59:57.702Z,92454.47
2023-12-02T06:04:59.343Z,92451.94
2023-12-02T06:10:02.264Z,92441.59
2023-12-02T06:15:04.887Z,92467.19
2023-12-02T06:20:07.741Z,92454.28
2023-12-02T06:25:10.755Z,92457.31
2023-12-02T06:30:14.868Z,92434.47
2023-12-02T06:35:16.555Z,92424.91
2023-12-02T06:40:19.530Z,92463.63
2023-12-02T06:45:21.118Z,92468.41
2023-12-02T06:50:22.682Z,92471.63
2023-12-02T07:00:30.081Z,92502.38
2023-12-02T07:05:31.697Z,92517.03
2023-12-02T07:10:35.655Z,92522.09
2023-12-02T07:15:38.308Z,92541.75
2023-12-02T07:20:41.490Z,92555.75
2023-12-02T07:25:44.428Z,92564.63
2023-12-02T07:30:46.021Z,92564.63
2023-12-02T07:35:47.616Z,92566.22
2023-12-02T07:40:50.564Z,92567.81
2023-12-02T07:45:52.177Z,92574.19
2023-12-02T07:50:53.737Z,92559.53
2023-12-02T07:55:56.678Z,92578.41
2023-12-02T08:00:58.200Z,92567.28
2023-12-02T08:05:59.852Z,92581.72
2023-12-02T08:11:02.796Z,92594.78
2023-12-02T08:16:05.022Z,92604.66
2023-12-02T08:21:07.579Z,92605.53
2023-12-02T08:26:10.496Z,92624.53
2023-12-02T08:31:12.120Z,92640.56
2023-12-02T08:36:13.720Z,92633.28
2023-12-02T08:41:16.650Z,92647.53
2023-12-02T08:46:19.215Z,92661.38
2023-12-02T08:51:20.826Z,92663.13
2023-12-02T08:56:23.823Z,92669.00
2023-12-02T09:01:25.547Z,92672.28
2023-12-02T09:06:27.279Z,92685.13
2023-12-02T09:11:30.778Z,92685.13
2023-12-02T09:16:32.469Z,92680.25
2023-12-02T09:21:51.740Z,92693.53
2023-12-02T09:26:54.722Z,92701.56
2023-12-02T09:31:56.634Z,92710.84
2023-12-02T09:36:58.268Z,92710.34
2023-12-02T09:42:04.935Z,92708.16
2023-12-02T09:47:15.534Z,92713.34
2023-12-02T09:52:28.948Z,92712.25
2023-12-02T09:57:38.507Z,92724.94
2023-12-02T10:03:10.175Z,92726.84
2023-12-02T10:08:26.077Z,92738.22
2023-12-02T10:13:43.129Z,92755.78
2023-12-02T10:18:54.131Z,92754.97
2023-12-02T10:23:58.196Z,92762.75
2023-12-02T10:29:12.904Z,92755.34
2023-12-02T10:34:22.459Z,92766.53
2023-12-02T10:39:35.665Z,92776.53
2023-12-02T10:44:40.819Z,92768.13
2023-12-02T10:49:43.676Z,92772.19
2023-12-02T10:54:52.636Z,92774.28
2023-12-02T11:00:04.309Z,92763.91
2023-12-02T11:05:19.720Z,92768.91
2023-12-02T11:10:43.476Z,92787.78
2023-12-02T11:16:14.178Z,92803.03
2023-12-02T11:21:25.822Z,92800.31
2023-12-02T11:26:33.534Z,92806.31
2023-12-02T11:31:56.110Z,92828.13
2023-12-02T11:37:08.720Z,92838.56
2023-12-02T11:42:17.108Z,92843.41
2023-12-02T11:47:33.036Z,92847.31
2023-12-02T11:52:47.979Z,92859.06
2023-12-02T11:57:59.714Z,92868.16
2023-12-02T12:03:22.556Z,92852.56
2023-12-02T12:08:34.392Z,92871.41
2023-12-02T12:13:36.671Z,92898.19
2023-12-02T12:18:39.637Z,92923.34
2023-12-02T12:23:41.191Z,92910.69
2023-12-02T12:28:42.744Z,92936.31
2023-12-02T12:33:50.829Z,92948.59
2023-12-02T12:38:54.744Z,92941.81
2023-12-02T12:43:57.864Z,92951.03
2023-12-02T12:49:04.713Z,92969.97
2023-12-02T12:54:06.971Z,92995.88
2023-12-02T12:59:10.214Z,92993.75
2023-12-02T13:04:25.263Z,93006.69
2023-12-02T13:09:31.480Z,93010.97
2023-12-02T13:14:39.945Z,93022.44
2023-12-02T13:19:45.295Z,93028.84
2023-12-02T13:24:54.453Z,93052.75
2023-12-02T13:30:01.066Z,93060.47
2023-12-02T13:35:06.227Z,93071.16
2023-12-02T13:40:11.261Z,93082.75
2023-12-02T13:45:17.663Z,93098.75
2023-12-02T13:50:26.686Z,93104.22
2023-12-02T13:55:46.819Z,93118.88
2023-12-02T14:00:59.099Z,93112.75
2023-12-02T14:06:08.492Z,93139.41
2023-12-02T14:11:14.984Z,93144.91
2023-12-02T14:16:38.528Z,93145.84
2023-12-02T14:21:58.458Z,93162.06
2023-12-02T14:27:27.319Z,93175.69
2023-12-02T14:32:43.055Z,93185.50
2023-12-02T14:38:08.060Z,93207.63
2023-12-02T14:43:27.818Z,93218.47
2023-12-02T14:48:30.246Z,93234.75
2023-12-02T14:53:36.909Z,93226.94
2023-12-02T14:58:39.091Z,93246.53
2023-12-02T15:03:43.284Z,93241.31
2023-12-02T15:08:46.917Z,93256.50
2023-12-02T15:13:49.697Z,93257.44
2023-12-02T15:18:52.922Z,93289.47
2023-12-02T15:23:55.931Z,93293.38
2023-12-02T15:29:01.459Z,93300.75
2023-12-02T15:34:03.304Z,93305.25
2023-12-02T15:39:09.440Z,93323.78
2023-12-02T15:44:11.089Z,93326.53
2023-12-02T15:49:12.704Z,93352.09
2023-12-02T15:54:16.010Z,93360.63
2023-12-02T15:59:20.194Z,93360.53
2023-12-02T16:04:22.128Z,93368.50
2023-12-02T16:09:25.310Z,93389.00
2023-12-02T16:14:27.574Z,93391.53
2023-12-02T16:19:29.692Z,93392.25
2023-12-02T16:24:32.965Z,93403.41
2023-12-02T16:29:35.401Z,93411.13
2023-12-02T16:34:37.196Z,93415.06
2023-12-02T16:39:40.896Z,93430.47
2023-12-02T16:44:43.026Z,93441.75
2023-12-02T16:49:44.640Z,93445.66
2023-12-02T16:54:47.620Z,93447.97
2023-12-02T16:59:49.801Z,93471.91
2023-12-02T17:04:51.564Z,93482.84
2023-12-02T17:09:54.659Z,93489.84
2023-12-02T17:15:05.656Z,93493.28
2023-12-02T17:20:14.047Z,93501.59
2023-12-02T17:25:45.974Z,93510.78
2023-12-02T17:30:47.532Z,93517.19
2023-12-02T17:35:49.117Z,93533.38
2023-12-02T17:40:52.054Z,93542.22
2023-12-02T17:45:53.698Z,93547.69
2023-12-02T17:50:55.288Z,93565.41
2023-12-02T17:55:58.225Z,93573.91
2023-12-02T18:00:59.807Z,93581.69
2023-12-02T18:06:01.584Z,93580.78
2023-12-02T18:11:04.816Z,93594.03
2023-12-02T18:16:07.213Z,93600.59
2023-12-02T18:21:08.905Z,93620.16
2023-12-02T18:26:11.973Z,93615.09
2023-12-02T18:31:13.494Z,93631.69
2023-12-02T18:36:15.114Z,93642.31
2023-12-02T18:41:18.062Z,93641.59
2023-12-02T18:46:19.613Z,93654.28
2023-12-02T18:51:21.152Z,93662.53
2023-12-02T18:56:24.029Z,93668.72
2023-12-02T19:01:25.811Z,93675.41
2023-12-02T19:06:27.642Z,93685.13
2023-12-02T19:11:30.679Z,93699.50
2023-12-02T19:16:32.322Z,93714.47
2023-12-02T19:21:33.939Z,93726.41
2023-12-02T19:26:36.839Z,93727.84
2023-12-02T19:31:38.471Z,93739.00
2023-12-02T19:36:40.166Z,93739.00
2023-12-02T19:41:46.079Z,93739.78
2023-12-02T19:46:48.444Z,93748.25
2023-12-02T19:51:50.049Z,93756.94
2023-12-02T19:56:53.130Z,93772.28
2023-12-02T20:01:54.804Z,93775.13
2023-12-02T20:06:56.364Z,93780.47
2023-12-02T20:11:59.348Z,93787.94
2023-12-02T20:17:00.972Z,93787.50
2023-12-02T20:22:02.867Z,93801.78
2023-12-02T20:27:05.965Z,93806.88
2023-12-02T20:32:07.559Z,93812.75
2023-12-02T20:37:09.273Z,93813.25
2023-12-02T20:42:12.301Z,93830.16
2023-12-02T20:47:13.936Z,93822.25
2023-12-02T20:52:15.487Z,93832.75
2023-12-02T20:57:18.439Z,93836.38
2023-12-02T21:02:20.198Z,93839.63
2023-12-02T21:07:21.833Z,93849.25
2023-12-02T21:12:26.225Z,93841.97
2023-12-02T21:17:28.989Z,93852.91
2023-12-02T21:22:30.713Z,93858.53
2023-12-02T21:27:33.838Z,93856.34
2023-12-02T21:32:35.454Z,93867.06
2023-12-02T21:37:37.081Z,93866.25
2023-12-02T21:42:40.066Z,93875.75
2023-12-02T21:47:41.695Z,93887.66
2023-12-02T21:52:43.234Z,93879.56
2023-12-02T21:57:47.429Z,93886.06
2023-12-02T22:02:49.116Z,93893.22
2023-12-02T22:07:50.827Z,93902.22
2023-12-02T22:12:54.080Z,93910.31
2023-12-02T22:17:56.059Z,93916.47
2023-12-02T22:22:59.766Z,93926.50
2023-12-02T22:28:04.840Z,93929.13
2023-12-02T22:33:06.817Z,93945.56
2023-12-02T22:38:17.285Z,93948.28
2023-12-02T22:43:21.600Z,93951.84
2023-12-02T22:48:36.160Z,93956.50
2023-12-02T22:53:39.447Z,93972.72
2023-12-02T22:58:44.493Z,93974.91
2023-12-02T23:03:46.349Z,93965.00
2023-12-02T23:08:48.099Z,93961.72
2023-12-02T23:13:51.135Z,93976.72
2023-12-02T23:18:52.759Z,93980.34
2023-12-02T23:23:54.344Z,93983.72
2023-12-02T23:28:57.500Z,93986.63
2023-12-02T23:33:59.192Z,93987.13
2023-12-02T23:39:01.325Z,93977.53
2023-12-02T23:44:08.842Z,93981.53
2023-12-02T23:49:10.464Z,93982.16
2023-12-02T23:54:12.187Z,93990.25
2023-12-02T23:59:15.358Z,93988.63
